North Westchester, Connecticut
Current Conditions -  °F | °C
As of 11:15 PM on Saturday 20 Dec 2014 (Local Time) from KSNC Reporting Station
Overcast Overcast  
Wind Chill: 32°   Ceiling: 1200
Heat Index: 32°   Visibility: 10mi
Dew Point: 27°   Wind: 3mph
Humidity: 80%   Direction: 10°N
Pressure: 30.26"   Gusts: NA
Location:  41.58°N, 72.4°W
Report Text: KSNC 210415Z AUTO 01003KT 10SM OVC012 00/M03 A3026 RMK AO2
Loading
Personal Weather Stations






























Interactive Weather Map New forecast layout! Learn more

10-Day Weather Forecast

Advertisements
Track Severe Weather on mobile